Whipholt, Minnesota
Current Conditions -  °F | °C
As of 12:35 PM on Tuesday 27 Jan 2015 (Local Time) from KY49 Reporting Station
Broken Clouds Broken Clouds  
Wind Chill: 25°   Ceiling: 1300
Heat Index: 32°   Visibility: 10mi
Dew Point: 25°   Wind: 7mph
Humidity: 76%   Direction: 170°S
Pressure: 30.08"   Gusts: NA
Location:  47.0507°N, 94.6083°W
Report Text: KY49 271835Z AUTO 17006KT 10SM BKN013 00/M04 A3008 RMK AO2 T10021040
Loading
Personal Weather Stations






























Interactive Weather Map New forecast layout! Learn more

10-Day Weather Forecast

Advertisements
Track Severe Weather on mobile